Time;durP1;ratioP1;P1;durP2;ratioP2;P2;SDS_P1;SDS_P2;PMS_P1;PMS_P2;Temp;Humidity;BMP_temperature;BMP_pressure;BME280_temperature;BME280_humidity;BME280_pressure;Samples;Min_cycle;Max_cycle;Signal;HPM_P1;HPM_P2
2022/04/23 00:00:04;;;;;;;20.70;16.47;;;11.60;99.90;;;;;;5035209;28;20249;-66
2022/04/23 00:02:29;;;;;;;19.60;17.60;;;11.60;99.90;;;;;;5035491;28;20193;-66
2022/04/23 00:04:55;;;;;;;19.50;17.60;;;11.70;99.90;;;;;;5035367;28;20906;-66
2022/04/23 00:07:21;;;;;;;18.60;16.80;;;11.70;99.90;;;;;;5035397;28;20176;-68
2022/04/23 00:09:46;;;;;;;17.83;16.17;;;11.70;99.90;;;;;;5035027;28;20198;-66
2022/04/23 00:12:12;;;;;;;18.37;16.43;;;11.70;99.90;;;;;;5035249;28;20221;-66
2022/04/23 00:14:37;;;;;;;19.00;17.20;;;11.70;99.90;;;;;;5035202;28;20532;-67
2022/04/23 00:17:03;;;;;;;19.90;17.27;;;11.70;99.90;;;;;;5035092;28;20772;-66
2022/04/23 00:19:29;;;;;;;20.10;18.10;;;11.60;99.90;;;;;;5034723;28;20186;-66
2022/04/23 00:21:54;;;;;;;18.67;16.87;;;11.50;99.90;;;;;;5035113;28;20482;-66
2022/04/23 00:24:20;;;;;;;19.30;17.40;;;11.50;99.90;;;;;;5035080;28;20166;-68
2022/04/23 00:26:45;;;;;;;18.33;16.53;;;11.50;99.90;;;;;;5035032;28;20182;-66
2022/04/23 00:29:11;;;;;;;20.47;17.77;;;11.40;99.90;;;;;;5034569;28;20239;-66
2022/04/23 00:31:36;;;;;;;17.33;15.73;;;11.40;99.90;;;;;;5034965;28;20313;-66
2022/04/23 00:34:03;;;;;;;18.87;16.97;;;11.40;99.90;;;;;;5034790;28;20198;-66
2022/04/23 00:36:28;;;;;;;17.87;16.00;;;11.40;99.90;;;;;;5034745;28;20194;-66
2022/04/23 00:38:54;;;;;;;18.40;16.50;;;11.30;99.90;;;;;;5034771;28;20432;-66
2022/04/23 00:44:05;;;;;;;18.70;16.70;;;11.20;99.90;;;;;;5035046;28;20424;-66
2022/04/23 00:46:31;;;;;;;16.07;14.57;;;11.10;99.90;;;;;;5034638;28;20559;-66
2022/04/23 00:48:58;;;;;;;17.00;15.33;;;11.10;99.90;;;;;;5034283;28;20474;-66
2022/04/23 00:51:28;;;;;;;16.83;15.20;;;11.00;99.90;;;;;;5034637;28;20521;-66
2022/04/23 00:53:54;;;;;;;18.80;17.00;;;11.00;99.90;;;;;;5034533;28;20429;-66
2022/04/23 00:56:22;;;;;;;16.20;14.70;;;11.00;99.90;;;;;;5034389;28;20534;-66
2022/04/23 00:58:47;;;;;;;17.27;15.47;;;11.00;99.90;;;;;;5033882;28;20495;-66
2022/04/23 01:01:14;;;;;;;17.10;15.40;;;10.90;99.90;;;;;;5034376;28;20416;-69
2022/04/23 01:03:42;;;;;;;18.10;15.13;;;10.90;99.90;;;;;;5033401;28;20197;-66
2022/04/23 01:06:10;;;;;;;17.03;15.27;;;10.80;99.90;;;;;;5034082;28;21014;-66
2022/04/23 01:08:37;;;;;;;17.13;15.53;;;10.70;99.90;;;;;;5033903;28;20805;-67
2022/04/23 01:11:03;;;;;;;16.87;15.27;;;10.80;99.90;;;;;;5034262;28;20482;-68
2022/04/23 01:13:28;;;;;;;15.50;14.03;;;10.80;99.90;;;;;;5033992;28;20926;-69
2022/04/23 01:15:57;;;;;;;16.17;14.50;;;10.80;99.90;;;;;;5034017;28;20460;-66
2022/04/23 01:18:22;;;;;;;14.90;13.40;;;10.80;99.90;;;;;;5033661;28;20209;-66
2022/04/23 01:20:48;;;;;;;17.60;15.90;;;10.70;99.90;;;;;;5034016;28;20417;-66
2022/04/23 01:23:14;;;;;;;16.53;14.93;;;10.60;99.90;;;;;;5033979;28;20535;-66
2022/04/23 01:25:39;;;;;;;17.10;15.60;;;10.70;99.90;;;;;;5033932;28;20232;-69
2022/04/23 01:28:06;;;;;;;17.00;15.30;;;10.70;99.90;;;;;;5033671;28;20195;-66
2022/04/23 01:30:32;;;;;;;18.40;15.80;;;10.70;99.90;;;;;;5033908;28;20291;-66
2022/04/23 01:32:58;;;;;;;16.50;14.90;;;10.60;99.90;;;;;;5032511;28;20508;-65
2022/04/23 01:35:23;;;;;;;18.23;16.40;;;10.60;99.90;;;;;;5033682;28;20257;-65
2022/04/23 01:37:49;;;;;;;16.13;14.47;;;10.60;99.90;;;;;;5033572;28;20190;-66
2022/04/23 01:40:14;;;;;;;17.87;16.03;;;10.60;99.90;;;;;;5033424;28;20572;-68
2022/04/23 01:42:40;;;;;;;16.93;15.33;;;10.60;99.90;;;;;;5033484;28;20170;-65
2022/04/23 01:45:06;;;;;;;16.60;15.07;;;10.60;99.90;;;;;;5033773;28;20174;-65
2022/04/23 01:47:31;;;;;;;18.03;16.23;;;10.60;99.90;;;;;;5033549;28;20175;-66
2022/04/23 01:49:57;;;;;;;18.07;16.20;;;10.60;99.90;;;;;;5033275;28;20419;-65
2022/04/23 01:52:22;;;;;;;19.70;17.70;;;10.50;99.90;;;;;;5033610;28;20174;-68
2022/04/23 01:54:48;;;;;;;16.77;15.17;;;10.50;99.90;;;;;;5033381;28;20247;-68
2022/04/23 01:57:13;;;;;;;16.03;14.50;;;10.50;99.90;;;;;;5033149;28;20381;-66
2022/04/23 01:59:39;;;;;;;16.50;14.90;;;10.40;99.90;;;;;;5032809;28;20218;-66
2022/04/23 02:02:04;;;;;;;18.60;16.80;;;10.40;99.90;;;;;;5033227;28;20166;-65
2022/04/23 02:04:30;;;;;;;17.83;15.93;;;10.30;99.90;;;;;;5033164;28;20255;-65
2022/04/23 02:06:55;;;;;;;19.80;17.70;;;10.20;99.90;;;;;;5033047;28;20666;-65
2022/04/23 02:09:21;;;;;;;21.43;16.23;;;10.10;99.90;;;;;;5032813;28;20239;-68
2022/04/23 02:11:46;;;;;;;19.87;17.90;;;10.10;99.90;;;;;;5032898;28;20224;-65
2022/04/23 02:14:13;;;;;;;20.10;18.20;;;10.00;99.90;;;;;;5033052;28;20256;-65
2022/04/23 02:16:40;;;;;;;19.97;17.83;;;10.00;99.90;;;;;;5032563;28;20201;-66
2022/04/23 02:19:06;;;;;;;19.87;17.90;;;10.00;99.90;;;;;;5032512;28;20807;-65
2022/04/23 02:21:31;;;;;;;20.77;18.70;;;9.90;99.90;;;;;;5032863;28;20409;-66
2022/04/23 02:23:57;;;;;;;20.37;18.17;;;9.90;99.90;;;;;;5033288;28;20178;-67
2022/04/23 02:26:23;;;;;;;21.90;19.70;;;9.90;99.90;;;;;;5032682;28;20258;-65
2022/04/23 02:28:52;;;;;;;19.80;17.90;;;9.90;99.90;;;;;;5032396;28;20202;-67
2022/04/23 02:31:17;;;;;;;19.13;17.13;;;9.90;99.90;;;;;;5032667;28;20420;-65
2022/04/23 02:33:44;;;;;;;20.10;18.20;;;9.90;99.90;;;;;;5032704;28;20919;-67
2022/04/23 02:36:11;;;;;;;22.10;19.90;;;9.80;99.90;;;;;;5032621;28;20562;-67
2022/04/23 02:38:40;;;;;;;20.43;18.47;;;9.70;99.90;;;;;;5032242;28;20463;-66
2022/04/23 02:41:10;;;;;;;20.90;18.70;;;9.70;99.90;;;;;;5032430;28;20504;-66
2022/04/23 02:43:38;;;;;;;22.43;20.23;;;9.60;99.90;;;;;;5032642;28;20449;-68
2022/04/23 02:46:05;;;;;;;22.00;19.80;;;9.70;99.90;;;;;;5032446;28;20421;-68
2022/04/23 02:48:31;;;;;;;22.20;19.50;;;9.60;99.90;;;;;;5032042;28;20834;-68
2022/04/23 02:50:57;;;;;;;23.00;20.53;;;9.60;99.90;;;;;;5032526;28;20456;-66
2022/04/23 02:53:23;;;;;;;22.57;20.20;;;9.60;99.90;;;;;;5032299;28;21146;-68
2022/04/23 02:55:48;;;;;;;21.27;19.37;;;9.60;99.90;;;;;;5032160;28;20460;-68
2022/04/23 02:58:14;;;;;;;22.60;20.20;;;9.60;99.90;;;;;;5031772;28;20202;-68
2022/04/23 03:00:42;;;;;;;22.33;19.73;;;9.60;99.90;;;;;;5032227;28;20171;-68
2022/04/23 03:03:09;;;;;;;22.17;19.80;;;9.50;99.90;;;;;;5032190;28;20845;-68
2022/04/23 03:05:35;;;;;;;23.50;21.20;;;9.50;99.90;;;;;;5032149;28;20417;-68
2022/04/23 03:08:01;;;;;;;20.10;18.07;;;9.50;99.90;;;;;;5031984;28;20499;-68
2022/04/23 03:10:29;;;;;;;21.60;19.37;;;9.50;99.90;;;;;;5031866;28;20765;-68
2022/04/23 03:12:57;;;;;;;21.17;19.10;;;9.40;99.90;;;;;;5032303;28;20252;-68
2022/04/23 03:15:24;;;;;;;21.47;19.27;;;9.40;99.90;;;;;;5032040;28;21127;-68
2022/04/23 03:17:50;;;;;;;23.43;21.23;;;9.40;99.90;;;;;;5031953;28;20452;-68
2022/04/23 03:20:15;;;;;;;22.43;20.13;;;9.30;99.90;;;;;;5031757;28;20861;-68
2022/04/23 03:22:42;;;;;;;25.33;21.50;;;9.30;99.90;;;;;;5031929;28;20628;-68
2022/04/23 03:25:10;;;;;;;22.77;20.60;;;9.30;99.90;;;;;;5032180;28;20572;-68
2022/04/23 03:27:36;;;;;;;23.70;21.30;;;9.20;99.90;;;;;;5033147;28;20507;-69
2022/04/23 03:30:03;;;;;;;22.50;20.20;;;9.30;99.90;;;;;;5035807;28;20868;-69
2022/04/23 03:32:28;;;;;;;20.30;18.37;;;9.30;99.90;;;;;;5036037;28;20992;-67
2022/04/23 03:34:54;;;;;;;21.87;19.67;;;9.30;99.90;;;;;;5036040;28;20420;-68
2022/04/23 03:37:20;;;;;;;21.50;19.20;;;9.20;99.90;;;;;;5035938;28;20197;-68
2022/04/23 03:39:45;;;;;;;20.53;18.43;;;9.20;99.90;;;;;;5034285;28;20232;-68
2022/04/23 03:42:11;;;;;;;22.83;20.30;;;9.20;99.90;;;;;;5036001;28;20270;-69
2022/04/23 03:44:37;;;;;;;23.83;21.37;;;9.20;99.90;;;;;;5035883;28;20224;-69
2022/04/23 03:47:03;;;;;;;22.50;20.17;;;9.20;99.90;;;;;;5035797;28;20174;-69
2022/04/23 03:49:32;;;;;;;21.63;19.33;;;9.10;99.90;;;;;;5034827;28;20442;-68
2022/04/23 03:51:58;;;;;;;22.80;20.40;;;9.00;99.90;;;;;;5035714;28;20421;-68
2022/04/23 03:54:23;;;;;;;24.37;21.97;;;8.90;99.90;;;;;;5035610;28;20420;-68
2022/04/23 03:56:49;;;;;;;21.53;19.33;;;8.90;99.90;;;;;;5035632;28;20198;-67
2022/04/23 03:59:15;;;;;;;23.47;21.07;;;8.90;99.90;;;;;;5035213;28;20255;-66
2022/04/23 04:01:41;;;;;;;23.00;20.70;;;8.80;99.90;;;;;;5035585;28;20196;-69
2022/04/23 04:04:07;;;;;;;22.23;20.00;;;8.80;99.90;;;;;;5034121;28;20171;-68
2022/04/23 04:06:33;;;;;;;23.60;21.27;;;8.80;99.90;;;;;;5035461;28;20504;-68
2022/04/23 04:08:59;;;;;;;24.60;21.90;;;8.80;99.90;;;;;;5035053;28;20558;-68
2022/04/23 04:11:25;;;;;;;24.03;21.63;;;9.00;99.90;;;;;;5035346;28;20178;-68
2022/04/23 04:13:50;;;;;;;22.67;20.40;;;8.90;99.90;;;;;;5035318;28;20425;-67
2022/04/23 04:16:17;;;;;;;22.67;20.40;;;8.80;99.90;;;;;;5033937;28;20675;-67
2022/04/23 04:18:45;;;;;;;22.10;19.90;;;8.80;99.90;;;;;;5034787;28;20197;-67
2022/04/23 04:21:12;;;;;;;22.33;20.13;;;8.80;99.90;;;;;;5035255;28;20420;-70
2022/04/23 04:23:39;;;;;;;20.70;18.60;;;8.80;99.90;;;;;;5035121;28;20448;-67
2022/04/23 04:26:06;;;;;;;23.07;20.57;;;8.80;99.90;;;;;;5035088;28;20416;-70
2022/04/23 04:28:31;;;;;;;27.23;24.17;;;8.80;99.90;;;;;;5034679;28;20975;-68
2022/04/23 04:33:41;;;;;;;23.57;21.17;;;8.80;99.90;;;;;;5034992;28;20734;-66
2022/04/23 04:36:07;;;;;;;21.83;19.53;;;8.90;99.90;;;;;;5034826;28;20551;-69
2022/04/23 04:38:32;;;;;;;22.27;19.97;;;8.90;99.90;;;;;;5034197;28;20196;-68
2022/04/23 04:40:58;;;;;;;23.40;20.97;;;9.00;99.90;;;;;;5034826;28;20640;-69
2022/04/23 04:43:23;;;;;;;23.57;21.13;;;9.00;99.90;;;;;;5034762;28;20647;-69
2022/04/23 04:45:49;;;;;;;23.07;20.77;;;9.10;99.90;;;;;;5034702;28;20201;-68
2022/04/23 04:48:15;;;;;;;24.67;22.17;;;9.20;99.90;;;;;;5034263;28;20239;-69
2022/04/23 04:50:41;;;;;;;21.73;19.03;;;9.20;99.90;;;;;;5034166;28;20194;-69
2022/04/23 04:53:06;;;;;;;21.37;19.27;;;9.20;99.90;;;;;;5034532;28;20447;-67
2022/04/23 04:55:34;;;;;;;22.43;20.30;;;9.20;99.90;;;;;;5034361;28;20464;-67
2022/04/23 04:58:00;;;;;;;21.43;19.23;;;9.30;99.90;;;;;;5034208;28;20281;-67
2022/04/23 05:00:25;;;;;;;21.60;18.30;;;9.30;99.90;;;;;;5034275;28;20499;-67
2022/04/23 05:02:51;;;;;;;21.97;19.70;;;9.40;99.90;;;;;;5034448;28;20446;-67
2022/04/23 05:05:16;;;;;;;20.77;18.70;;;9.40;99.90;;;;;;5034463;28;20198;-67
2022/04/23 05:07:42;;;;;;;19.37;17.57;;;9.40;99.90;;;;;;5034203;28;20678;-67
2022/04/23 05:10:08;;;;;;;20.67;18.47;;;9.50;99.90;;;;;;5033903;28;20174;-67
2022/04/23 05:12:33;;;;;;;19.60;17.70;;;9.60;99.90;;;;;;5034122;28;20178;-67
2022/04/23 05:14:59;;;;;;;19.37;17.50;;;9.70;99.90;;;;;;5034149;28;20628;-67
2022/04/23 05:17:24;;;;;;;19.53;17.63;;;9.90;99.90;;;;;;5034040;28;20313;-67
2022/04/23 05:19:50;;;;;;;19.47;17.60;;;10.00;99.90;;;;;;5033729;28;20202;-67
2022/04/23 05:22:15;;;;;;;19.00;17.20;;;10.10;99.90;;;;;;5034002;28;20202;-67
2022/04/23 05:24:41;;;;;;;17.70;16.00;;;10.20;99.90;;;;;;5032824;28;20181;-67
2022/04/23 05:27:06;;;;;;;18.47;16.63;;;10.30;99.90;;;;;;5033874;28;20188;-67
2022/04/23 05:29:32;;;;;;;17.43;15.73;;;10.30;99.90;;;;;;5033707;28;20202;-67
2022/04/23 05:31:57;;;;;;;17.33;15.37;;;10.30;99.90;;;;;;5033863;28;20548;-67
2022/04/23 05:34:25;;;;;;;17.27;15.57;;;10.50;99.90;;;;;;5033879;28;20261;-67
2022/04/23 05:36:50;;;;;;;18.73;16.70;;;10.50;99.90;;;;;;5033652;28;20233;-67
2022/04/23 05:39:16;;;;;;;18.23;16.53;;;10.40;99.90;;;;;;5033277;28;20441;-67
2022/04/23 05:41:41;;;;;;;19.77;17.67;;;10.40;99.90;;;;;;5033589;28;20185;-67
2022/04/23 05:44:07;;;;;;;19.23;17.23;;;10.30;99.90;;;;;;5033561;28;20173;-69
2022/04/23 05:46:32;;;;;;;21.70;17.80;;;10.30;99.90;;;;;;5033712;28;20654;-68
2022/04/23 05:48:59;;;;;;;17.90;16.10;;;10.40;99.90;;;;;;5031849;28;20281;-67
2022/04/23 05:51:25;;;;;;;17.50;15.80;;;10.30;99.90;;;;;;5032806;28;20539;-69
2022/04/23 05:53:50;;;;;;;18.37;16.57;;;10.30;99.90;;;;;;5033389;28;20421;-68
2022/04/23 05:56:16;;;;;;;18.17;16.40;;;10.20;99.90;;;;;;5033372;28;20210;-69
2022/04/23 05:58:42;;;;;;;16.60;14.90;;;10.20;99.90;;;;;;5032938;28;20615;-68
2022/04/23 06:01:07;;;;;;;18.13;16.33;;;10.30;99.90;;;;;;5032032;28;20162;-68
2022/04/23 06:03:33;;;;;;;16.73;15.13;;;10.20;99.90;;;;;;5033244;28;20229;-69
2022/04/23 06:05:58;;;;;;;18.60;16.60;;;10.10;99.90;;;;;;5031886;28;20266;-68
2022/04/23 06:08:24;;;;;;;18.10;16.30;;;10.20;99.90;;;;;;5032809;28;20566;-67
2022/04/23 06:10:49;;;;;;;17.63;15.93;;;10.20;99.90;;;;;;5033073;28;20178;-67
2022/04/23 06:13:15;;;;;;;18.13;15.70;;;10.10;99.90;;;;;;5033195;28;20208;-67
2022/04/23 06:15:41;;;;;;;16.37;14.70;;;10.20;99.90;;;;;;5032938;28;20239;-67
2022/04/23 06:18:07;;;;;;;17.90;16.07;;;10.40;99.90;;;;;;5032783;28;20433;-67
2022/04/23 06:20:32;;;;;;;16.13;14.43;;;10.40;99.90;;;;;;5032764;28;20553;-67
2022/04/23 06:22:58;;;;;;;18.47;15.37;;;10.50;99.90;;;;;;5032899;28;20174;-67
2022/04/23 06:25:23;;;;;;;17.53;15.73;;;10.50;99.90;;;;;;5032820;28;20639;-67
2022/04/23 06:27:50;;;;;;;17.63;15.87;;;10.30;99.90;;;;;;5032801;28;20652;-67
2022/04/23 06:30:16;;;;;;;16.80;15.20;;;10.30;99.90;;;;;;5032457;28;20158;-67
2022/04/23 06:32:41;;;;;;;15.97;14.27;;;10.30;99.90;;;;;;5032718;28;20434;-67
2022/04/23 06:35:07;;;;;;;17.20;15.50;;;10.30;99.90;;;;;;5032698;28;20937;-67
2022/04/23 06:37:44;;;;;;;15.90;14.17;;;10.30;99.90;;;;;;5032461;28;20201;-67
2022/04/23 06:40:13;;;;;;;15.20;13.60;;;10.30;99.90;;;;;;5032317;28;20499;-67
2022/04/23 06:42:40;;;;;;;15.83;14.27;;;10.20;99.90;;;;;;5032473;28;20424;-67
2022/04/23 06:45:06;;;;;;;15.17;13.67;;;10.30;99.90;;;;;;5032584;28;20416;-67
2022/04/23 06:47:32;;;;;;;14.57;13.17;;;10.40;99.90;;;;;;5032374;28;20794;-67
2022/04/23 06:49:59;;;;;;;15.53;14.03;;;10.50;99.90;;;;;;5031541;28;20421;-67
2022/04/23 06:52:25;;;;;;;18.10;16.30;;;10.50;99.90;;;;;;5032501;28;20652;-67
2022/04/23 06:54:52;;;;;;;14.30;12.90;;;10.50;99.90;;;;;;5032393;28;20452;-67
2022/04/23 06:57:18;;;;;;;15.60;14.10;;;10.50;99.90;;;;;;5032288;28;20483;-67
2022/04/23 06:59:43;;;;;;;14.80;13.40;;;10.50;99.90;;;;;;5031793;28;20721;-67
2022/04/23 07:02:09;;;;;;;14.37;12.93;;;10.50;99.90;;;;;;5032200;28;20174;-67
2022/04/23 07:04:34;;;;;;;14.07;12.70;;;10.40;99.90;;;;;;5032061;28;20174;-67
2022/04/23 07:07:00;;;;;;;14.27;12.97;;;10.30;99.90;;;;;;5032133;28;20268;-67
2022/04/23 07:09:25;;;;;;;14.37;12.97;;;10.40;99.90;;;;;;5031820;28;20221;-67
2022/04/23 07:11:51;;;;;;;15.07;13.67;;;10.40;99.90;;;;;;5032062;28;20643;-70
2022/04/23 07:14:17;;;;;;;15.13;13.63;;;10.50;99.90;;;;;;5031985;28;20189;-67
2022/04/23 07:16:43;;;;;;;12.47;11.27;;;10.50;99.90;;;;;;5031980;28;20483;-67
2022/04/23 07:19:11;;;;;;;13.20;11.90;;;10.70;99.90;;;;;;5030908;28;20663;-67
2022/04/23 07:21:37;;;;;;;13.00;11.67;;;10.80;99.90;;;;;;5032031;28;20697;-67
2022/04/23 07:24:10;;;;;;;13.57;12.17;;;10.80;99.90;;;;;;5032367;28;20409;-68
2022/04/23 07:26:37;;;;;;;12.80;11.50;;;10.80;99.90;;;;;;5031967;28;20180;-67
2022/04/23 07:29:06;;;;;;;14.73;13.30;;;10.90;99.90;;;;;;5031797;28;20511;-67
2022/04/23 07:31:32;;;;;;;13.30;12.07;;;10.90;99.90;;;;;;5031888;28;20490;-66
2022/04/23 07:39:26;;;;;;;13.80;12.40;;;11.10;99.90;;;;;;5031777;28;20861;-67
2022/04/23 07:41:54;;;;;;;12.83;11.63;;;10.90;99.90;;;;;;5031762;28;20417;-67
2022/04/23 07:44:22;;;;;;;12.80;11.60;;;11.00;99.90;;;;;;5031842;28;20163;-67
2022/04/23 07:46:49;;;;;;;13.10;11.90;;;11.10;99.90;;;;;;5031637;28;20807;-69
2022/04/23 07:49:14;;;;;;;12.30;11.20;;;11.20;99.90;;;;;;5031268;28;20502;-68
2022/04/23 07:51:42;;;;;;;12.90;11.70;;;11.20;99.90;;;;;;5031677;28;20436;-68
2022/04/23 07:54:07;;;;;;;13.50;12.30;;;11.20;99.90;;;;;;5031828;28;20589;-68
2022/04/23 07:56:33;;;;;;;12.80;11.60;;;11.20;99.90;;;;;;5031606;28;20453;-68
2022/04/23 07:58:59;;;;;;;12.50;11.20;;;11.20;99.90;;;;;;5031077;28;20202;-68
2022/04/23 08:01:24;;;;;;;13.70;12.40;;;11.20;99.90;;;;;;5031534;28;20224;-68
2022/04/23 08:03:49;;;;;;;14.07;12.70;;;11.30;99.90;;;;;;5031660;28;20181;-68
2022/04/23 08:06:15;;;;;;;13.50;12.10;;;11.30;99.90;;;;;;5031732;28;20189;-68
2022/04/23 08:08:42;;;;;;;12.13;10.93;;;11.30;99.90;;;;;;5031202;28;20220;-68
2022/04/23 08:11:08;;;;;;;13.23;12.03;;;11.20;99.90;;;;;;5031527;28;20179;-68
2022/04/23 08:13:33;;;;;;;14.60;13.20;;;11.40;99.90;;;;;;5032510;28;20436;-68
2022/04/23 08:16:00;;;;;;;13.70;12.33;;;11.50;99.90;;;;;;5035081;28;20202;-68
2022/04/23 08:18:27;;;;;;;13.77;12.37;;;11.50;99.90;;;;;;5034673;28;20190;-68
2022/04/23 08:20:52;;;;;;;15.37;13.30;;;11.60;99.90;;;;;;5035218;28;20416;-68
2022/04/23 08:23:19;;;;;;;14.70;12.77;;;11.70;99.90;;;;;;5035774;28;20777;-69
2022/04/23 08:25:46;;;;;;;12.93;11.63;;;11.40;99.90;;;;;;5035079;28;20225;-69
2022/04/23 08:30:56;;;;;;;12.80;11.50;;;11.60;99.90;;;;;;5035385;28;20428;-69
2022/04/23 08:33:22;;;;;;;14.30;11.83;;;11.60;99.90;;;;;;5034788;28;20416;-67
2022/04/23 08:35:47;;;;;;;11.83;10.73;;;11.60;99.90;;;;;;5034802;28;20377;-69
2022/04/23 08:38:13;;;;;;;13.13;11.90;;;11.60;99.90;;;;;;5034406;28;20546;-69
2022/04/23 08:40:44;;;;;;;14.00;12.20;;;11.70;99.90;;;;;;5034793;28;20212;-69
2022/04/23 08:43:10;;;;;;;11.70;10.67;;;11.80;99.90;;;;;;5034634;28;20166;-69
2022/04/23 08:45:38;;;;;;;12.97;11.50;;;12.10;99.90;;;;;;5034724;28;20448;-69
2022/04/23 08:48:14;;;;;;;13.13;11.80;;;12.20;99.90;;;;;;5033751;28;20445;-69
2022/04/23 08:50:42;;;;;;;12.70;11.43;;;12.20;99.90;;;;;;5034955;28;20413;-69
2022/04/23 08:53:17;;;;;;;14.33;11.70;;;12.10;99.90;;;;;;5034545;28;20810;-69
2022/04/23 08:55:45;;;;;;;13.40;12.10;;;12.20;99.90;;;;;;5034325;28;20491;-68
2022/04/23 08:58:12;;;;;;;12.83;11.73;;;12.30;99.90;;;;;;5032856;28;20465;-68
2022/04/23 09:00:38;;;;;;;13.30;11.90;;;12.20;99.90;;;;;;5034403;28;20968;-69
2022/04/23 09:03:04;;;;;;;14.10;12.60;;;12.20;99.90;;;;;;5034680;28;20413;-68
2022/04/23 09:05:31;;;;;;;14.90;13.40;;;12.20;99.90;;;;;;5034247;28;20166;-69
2022/04/23 09:07:57;;;;;;;13.30;12.00;;;12.10;99.90;;;;;;5033986;28;20590;-70
2022/04/23 09:10:54;;;;;;;13.93;12.03;;;12.10;99.90;;;;;;5032699;28;20425;-69
2022/04/23 09:13:28;;;;;;;12.63;11.43;;;12.00;99.90;;;;;;5033619;28;20797;-65
2022/04/23 09:24:18;;;;;;;13.23;11.83;;;13.50;99.90;;;;;;5013637;28;20938;-65
2022/04/23 09:27:02;;;;;;;14.33;12.93;;;13.50;99.90;;;;;;5013015;28;20413;-66
2022/04/23 09:29:29;;;;;;;12.97;11.87;;;13.30;99.90;;;;;;5013768;28;20649;-66
2022/04/23 09:32:13;;;;;;;11.70;10.50;;;13.30;99.90;;;;;;5014085;28;20975;-70
2022/04/23 09:34:38;;;;;;;12.70;11.30;;;13.10;99.90;;;;;;5008069;28;20465;-70
2022/04/23 09:37:05;;;;;;;13.90;12.47;;;12.50;99.90;;;;;;5012621;28;20503;-70
2022/04/23 09:39:33;;;;;;;11.17;9.73;;;12.50;99.90;;;;;;5011598;28;20197;-69
2022/04/23 09:42:17;;;;;;;14.73;11.40;;;12.50;99.90;;;;;;5025725;28;20428;-70
2022/04/23 09:44:44;;;;;;;14.23;12.83;;;12.60;99.90;;;;;;5030505;28;20509;-69
2022/04/23 09:47:10;;;;;;;14.50;13.00;;;12.60;99.90;;;;;;5029995;28;20455;-69
2022/04/23 09:49:36;;;;;;;15.30;13.20;;;12.60;99.90;;;;;;5029772;28;20487;-69
2022/04/23 09:52:04;;;;;;;13.47;12.17;;;12.60;99.90;;;;;;5028786;28;20991;-70
2022/04/23 09:54:31;;;;;;;13.63;12.27;;;12.50;99.90;;;;;;5012310;28;20429;-70
2022/04/23 09:56:57;;;;;;;12.70;11.40;;;12.70;99.90;;;;;;5010166;28;20873;-69
2022/04/23 09:59:23;;;;;;;12.57;10.70;;;12.90;99.90;;;;;;5009875;28;20549;-69
2022/04/23 10:01:50;;;;;;;12.80;11.50;;;13.40;99.90;;;;;;5010155;28;20421;-69
2022/04/23 10:04:31;;;;;;;11.60;10.40;;;13.40;99.90;;;;;;5010230;28;20448;-71
2022/04/23 10:07:01;;;;;;;13.43;12.03;;;13.50;99.90;;;;;;4993624;28;20446;-70
2022/04/23 10:09:27;;;;;;;12.23;10.93;;;13.60;99.90;;;;;;4992177;28;20550;-68
2022/04/23 10:12:04;;;;;;;13.60;10.57;;;13.90;99.90;;;;;;4992788;28;20482;-69
2022/04/23 10:14:38;;;;;;;12.90;11.37;;;14.10;99.90;;;;;;4993418;28;20427;-70
2022/04/23 10:17:07;;;;;;;11.60;10.50;;;14.40;99.90;;;;;;4994586;28;20485;-69
2022/04/23 10:19:33;;;;;;;10.90;9.90;;;14.20;99.90;;;;;;4995298;28;20881;-70
2022/04/23 10:22:11;;;;;;;10.00;9.10;;;14.00;99.90;;;;;;4997325;28;20485;-70
2022/04/23 10:25:22;;;;;;;9.70;8.77;;;13.90;99.90;;;;;;4996111;28;20458;-71
2022/04/23 10:27:49;;;;;;;9.47;8.50;;;13.80;99.90;;;;;;4992584;28;20435;-70
2022/04/23 10:30:15;;;;;;;10.23;9.20;;;13.90;99.90;;;;;;5016501;28;20774;-70
2022/04/23 10:32:42;;;;;;;8.93;8.13;;;13.90;99.90;;;;;;5034818;28;20432;-69
2022/04/23 10:35:19;;;;;;;10.30;9.30;;;14.10;99.90;;;;;;5033556;28;21000;-69
2022/04/23 10:37:51;;;;;;;11.97;10.77;;;14.20;99.90;;;;;;5035273;28;20467;-70
2022/04/23 10:40:21;;;;;;;10.10;8.77;;;14.20;99.90;;;;;;5033760;28;20429;-69
2022/04/23 10:43:09;;;;;;;10.37;9.37;;;14.20;99.90;;;;;;5031339;28;20534;-69
2022/04/23 10:45:40;;;;;;;10.30;9.30;;;14.80;99.90;;;;;;5032145;28;20495;-69
2022/04/23 10:48:43;;;;;;;11.50;10.30;;;15.50;99.90;;;;;;5033348;28;20441;-69
2022/04/23 10:51:19;;;;;;;11.67;9.67;;;15.50;99.90;;;;;;5022061;28;20463;-69
2022/04/23 10:53:46;;;;;;;10.57;9.43;;;15.20;99.90;;;;;;5036273;28;20436;-70
2022/04/23 10:56:14;;;;;;;12.17;10.97;;;15.10;99.90;;;;;;5037314;28;20468;-68
2022/04/23 10:58:43;;;;;;;12.27;10.77;;;15.00;99.90;;;;;;5034763;28;20472;-70
2022/04/23 11:01:21;;;;;;;11.60;10.50;;;14.90;99.90;;;;;;5035782;28;20451;-69
2022/04/23 11:03:57;;;;;;;13.17;11.33;;;14.70;99.90;;;;;;5034005;28;20424;-70
2022/04/23 11:12:20;;;;;;;12.60;10.90;;;14.60;99.90;;;;;;5039912;28;20436;-69
2022/04/23 11:14:48;;;;;;;13.40;12.07;;;14.70;99.90;;;;;;5038747;28;20421;-69
2022/04/23 11:17:17;;;;;;;12.57;11.40;;;14.50;99.90;;;;;;5034535;28;20471;-70
2022/04/23 11:19:42;;;;;;;12.43;11.27;;;14.80;99.90;;;;;;5033575;28;20914;-70
2022/04/23 11:22:12;;;;;;;11.57;10.07;;;14.90;99.90;;;;;;5035729;28;20417;-71
2022/04/23 11:24:38;;;;;;;11.77;10.60;;;14.70;99.90;;;;;;5032439;28;20206;-69
2022/04/23 11:27:04;;;;;;;14.63;13.00;;;14.60;99.90;;;;;;5034368;28;20428;-69
2022/04/23 11:29:30;;;;;;;14.13;12.67;;;14.50;99.90;;;;;;5031482;28;20449;-70
2022/04/23 11:31:56;;;;;;;11.40;10.30;;;14.30;99.90;;;;;;5016627;28;20445;-69
2022/04/23 11:34:22;;;;;;;13.93;12.60;;;14.50;99.90;;;;;;5015414;28;20191;-70
2022/04/23 11:36:48;;;;;;;13.07;11.77;;;14.90;99.90;;;;;;5013523;28;20462;-69
2022/04/23 11:39:13;;;;;;;11.87;10.77;;;15.20;99.90;;;;;;5009117;28;20195;-69
2022/04/23 11:41:52;;;;;;;13.07;11.80;;;15.30;99.90;;;;;;5009252;28;20736;-70
2022/04/23 11:45:04;;;;;;;12.97;11.50;;;15.30;99.90;;;;;;5007966;28;20264;-70
2022/04/23 11:47:12;;;;;;;13.00;11.70;;;15.20;99.90;;;;;;5005120;28;20495;-69
2022/04/23 11:49:38;;;;;;;12.00;11.00;;;15.40;99.90;;;;;;5013241;28;20506;-69
2022/04/23 11:52:10;;;;;;;12.77;11.57;;;15.60;99.90;;;;;;5014980;28;20441;-69
2022/04/23 11:54:41;;;;;;;13.60;12.30;;;15.60;99.90;;;;;;5016117;28;20218;-70
2022/04/23 11:57:08;;;;;;;11.80;10.73;;;15.40;99.90;;;;;;5016284;28;20814;-70
2022/04/23 11:59:39;;;;;;;13.03;11.73;;;15.50;99.90;;;;;;5016109;28;20483;-70
2022/04/23 12:02:06;;;;;;;13.80;12.20;;;15.40;99.90;;;;;;5017648;28;20421;-69
2022/04/23 12:04:45;;;;;;;14.93;11.03;;;15.70;99.90;;;;;;5017432;28;20417;-70
2022/04/23 12:07:11;;;;;;;11.53;10.43;;;16.30;99.90;;;;;;5017135;28;20565;-71
2022/04/23 12:09:50;;;;;;;12.13;10.90;;;16.60;99.90;;;;;;5017023;28;20449;-70
2022/04/23 12:12:22;;;;;;;13.93;10.83;;;16.70;99.90;;;;;;5015540;28;20183;-72
2022/04/23 12:14:53;;;;;;;20.23;11.53;;;16.30;99.90;;;;;;5015670;28;20425;-70
2022/04/23 12:17:23;;;;;;;12.33;11.23;;;16.10;99.90;;;;;;5015399;28;20464;-69
2022/04/23 12:19:50;;;;;;;13.93;11.27;;;15.90;99.90;;;;;;5014948;28;20468;-69
2022/04/23 12:22:23;;;;;;;13.10;11.47;;;16.00;99.90;;;;;;5015840;28;20421;-70
2022/04/23 12:24:49;;;;;;;11.93;9.80;;;16.00;99.90;;;;;;5015142;28;20422;-65
2022/04/23 12:27:17;;;;;;;10.87;9.47;;;16.40;99.90;;;;;;5015358;28;20425;-67
2022/04/23 12:40:57;;;;;;;10.57;9.57;;;16.70;99.90;;;;;;5015930;28;20491;-69
2022/04/23 12:43:31;;;;;;;10.07;9.17;;;16.40;99.90;;;;;;5001134;28;20860;-70
2022/04/23 12:46:06;;;;;;;13.30;10.47;;;16.50;99.90;;;;;;4995317;28;20477;-70
2022/04/23 12:48:34;;;;;;;11.97;9.73;;;16.50;99.90;;;;;;4995248;28;20521;-70
2022/04/23 12:51:06;;;;;;;10.37;9.47;;;16.40;99.90;;;;;;4995154;28;20446;-69
2022/04/23 12:53:36;;;;;;;10.70;9.77;;;16.20;99.90;;;;;;4996390;28;21003;-70
2022/04/23 12:56:05;;;;;;;10.60;9.43;;;16.20;99.90;;;;;;5012342;28;20470;-68
2022/04/23 12:58:31;;;;;;;13.80;9.87;;;16.30;99.90;;;;;;4995256;28;20869;-69
2022/04/23 13:00:57;;;;;;;11.83;10.80;;;16.30;99.90;;;;;;4995633;28;20502;-70
2022/04/23 13:05:53;;;;;;;12.93;9.60;;;16.40;99.90;;;;;;4995695;28;20541;-69
2022/04/23 13:13:47;;;;;;;10.87;9.77;;;16.20;99.90;;;;;;4995552;28;20928;-70
2022/04/23 13:16:13;;;;;;;8.80;7.73;;;16.10;99.90;;;;;;4995328;28;20462;-70
2022/04/23 13:18:38;;;;;;;8.77;8.07;;;16.10;99.90;;;;;;4994894;28;20554;-70